sensor_id;sensor_type;location;lat;lon;timestamp;pressure;altitude;pressure_sealevel;temperature;humidity
6030;BME280;3043;42.682;23.376;2023-04-06T00:01:40;94669.28;;;0.85;100.00
6030;BME280;3043;42.682;23.376;2023-04-06T00:04:06;94677.00;;;0.99;100.00
6030;BME280;3043;42.682;23.376;2023-04-06T00:06:32;94671.00;;;0.86;100.00
6030;BME280;3043;42.682;23.376;2023-04-06T00:08:59;94667.63;;;0.93;100.00
6030;BME280;3043;42.682;23.376;2023-04-06T00:11:24;94662.50;;;0.84;100.00
6030;BME280;3043;42.682;23.376;2023-04-06T00:13:50;94665.91;;;0.86;100.00
6030;BME280;3043;42.682;23.376;2023-04-06T00:16:15;94658.25;;;0.82;100.00
6030;BME280;3043;42.682;23.376;2023-04-06T00:18:41;94649.75;;;0.84;100.00
6030;BME280;3043;42.682;23.376;2023-04-06T00:21:06;94657.38;;;0.81;100.00
6030;BME280;3043;42.682;23.376;2023-04-06T00:23:32;94652.34;;;0.93;100.00
6030;BME280;3043;42.682;23.376;2023-04-06T00:25:57;94658.28;;;0.89;100.00
6030;BME280;3043;42.682;23.376;2023-04-06T00:28:23;94649.06;;;1.06;100.00
6030;BME280;3043;42.682;23.376;2023-04-06T00:30:54;94658.34;;;0.98;100.00
6030;BME280;3043;42.682;23.376;2023-04-06T00:33:21;94650.78;;;1.16;100.00
6030;BME280;3043;42.682;23.376;2023-04-06T00:35:47;94650.75;;;1.10;100.00
6030;BME280;3043;42.682;23.376;2023-04-06T00:38:13;94644.84;;;1.19;100.00
6030;BME280;3043;42.682;23.376;2023-04-06T00:40:39;94648.22;;;1.09;100.00
6030;BME280;3043;42.682;23.376;2023-04-06T00:43:07;94637.25;;;1.26;100.00
6030;BME280;3043;42.682;23.376;2023-04-06T00:45:35;94631.34;;;1.36;100.00
6030;BME280;3043;42.682;23.376;2023-04-06T00:48:01;94634.75;;;1.37;100.00
6030;BME280;3043;42.682;23.376;2023-04-06T00:50:27;94638.16;;;1.42;100.00
6030;BME280;3043;42.682;23.376;2023-04-06T00:52:54;94626.31;;;1.47;100.00
6030;BME280;3043;42.682;23.376;2023-04-06T00:55:19;94626.31;;;1.51;100.00
6030;BME280;3043;42.682;23.376;2023-04-06T00:57:45;94637.31;;;1.47;100.00
6030;BME280;3043;42.682;23.376;2023-04-06T01:00:11;94627.19;;;1.56;100.00
6030;BME280;3043;42.682;23.376;2023-04-06T01:02:37;94628.75;;;1.23;100.00
6030;BME280;3043;42.682;23.376;2023-04-06T01:05:03;94633.06;;;1.39;100.00
6030;BME280;3043;42.682;23.376;2023-04-06T01:07:29;94630.47;;;1.31;100.00
6030;BME280;3043;42.682;23.376;2023-04-06T01:10:07;94626.31;;;1.47;100.00
6030;BME280;3043;42.682;23.376;2023-04-06T01:12:32;94632.25;;;1.52;100.00
6030;BME280;3043;42.682;23.376;2023-04-06T01:14:58;94634.75;;;1.41;100.00
6030;BME280;3043;42.682;23.376;2023-04-06T01:17:24;94619.44;;;1.40;100.00
6030;BME280;3043;42.682;23.376;2023-04-06T01:19:50;94623.81;;;1.63;100.00
6030;BME280;3043;42.682;23.376;2023-04-06T01:22:18;94623.81;;;1.71;100.00
6030;BME280;3043;42.682;23.376;2023-04-06T01:24:44;94622.16;;;1.87;100.00
6030;BME280;3043;42.682;23.376;2023-04-06T01:27:10;94615.28;;;1.61;100.00
6030;BME280;3043;42.682;23.376;2023-04-06T01:29:36;94615.31;;;1.70;100.00
6030;BME280;3043;42.682;23.376;2023-04-06T01:32:02;94608.56;;;1.88;100.00
6030;BME280;3043;42.682;23.376;2023-04-06T01:34:27;94608.53;;;1.78;100.00
6030;BME280;3043;42.682;23.376;2023-04-06T01:36:52;94612.78;;;1.75;100.00
6030;BME280;3043;42.682;23.376;2023-04-06T01:39:19;94603.38;;;1.51;100.00
6030;BME280;3043;42.682;23.376;2023-04-06T01:41:44;94600.81;;;1.56;100.00
6030;BME280;3043;42.682;23.376;2023-04-06T01:44:12;94605.09;;;1.61;100.00
6030;BME280;3043;42.682;23.376;2023-04-06T01:46:37;94606.81;;;1.59;100.00
6030;BME280;3043;42.682;23.376;2023-04-06T01:49:03;94603.34;;;1.45;100.00
6030;BME280;3043;42.682;23.376;2023-04-06T01:51:28;94594.88;;;1.64;100.00
6030;BME280;3043;42.682;23.376;2023-04-06T01:53:55;94601.63;;;1.44;100.00
6030;BME280;3043;42.682;23.376;2023-04-06T01:56:20;94600.88;;;1.71;100.00
6030;BME280;3043;42.682;23.376;2023-04-06T01:58:46;94594.03;;;1.55;100.00
6030;BME280;3043;42.682;23.376;2023-04-06T02:01:12;94589.72;;;1.43;100.00
6030;BME280;3043;42.682;23.376;2023-04-06T02:03:37;94579.56;;;1.52;100.00
6030;BME280;3043;42.682;23.376;2023-04-06T02:06:03;94588.03;;;1.42;100.00
6030;BME280;3043;42.682;23.376;2023-04-06T02:08:29;94588.06;;;1.48;100.00
6030;BME280;3043;42.682;23.376;2023-04-06T02:10:54;94594.88;;;1.63;100.00
6030;BME280;3043;42.682;23.376;2023-04-06T02:13:20;94590.63;;;1.59;100.00
6030;BME280;3043;42.682;23.376;2023-04-06T02:15:45;94585.56;;;1.66;100.00
6030;BME280;3043;42.682;23.376;2023-04-06T02:18:11;94586.41;;;1.62;100.00
6030;BME280;3043;42.682;23.376;2023-04-06T02:20:36;94581.22;;;1.44;100.00
6030;BME280;3043;42.682;23.376;2023-04-06T02:23:02;94589.75;;;1.49;100.00
6030;BME280;3043;42.682;23.376;2023-04-06T02:25:27;94581.22;;;1.41;100.00
6030;BME280;3043;42.682;23.376;2023-04-06T02:27:53;94583.78;;;1.46;100.00
6030;BME280;3043;42.682;23.376;2023-04-06T02:30:19;94575.31;;;1.54;100.00
6030;BME280;3043;42.682;23.376;2023-04-06T02:32:44;94579.56;;;1.49;100.00
6030;BME280;3043;42.682;23.376;2023-04-06T02:35:09;94583.78;;;1.44;100.00
6030;BME280;3043;42.682;23.376;2023-04-06T02:37:35;94586.31;;;1.38;100.00
6030;BME280;3043;42.682;23.376;2023-04-06T02:40:01;94587.19;;;1.43;100.00
6030;BME280;3043;42.682;23.376;2023-04-06T02:42:26;94579.50;;;1.34;100.00
6030;BME280;3043;42.682;23.376;2023-04-06T02:44:52;94582.09;;;1.46;100.00
6030;BME280;3043;42.682;23.376;2023-04-06T02:47:17;94585.50;;;1.45;100.00
6030;BME280;3043;42.682;23.376;2023-04-06T02:49:43;94569.31;;;1.34;100.00
6030;BME280;3043;42.682;23.376;2023-04-06T02:52:08;94576.06;;;1.23;100.00
6030;BME280;3043;42.682;23.376;2023-04-06T02:54:33;94581.19;;;1.35;100.00
6030;BME280;3043;42.682;23.376;2023-04-06T02:56:59;94577.81;;;1.33;100.00
6030;BME280;3043;42.682;23.376;2023-04-06T02:59:24;94577.81;;;1.33;100.00
6030;BME280;3043;42.682;23.376;2023-04-06T03:01:50;94578.75;;;1.59;100.00
6030;BME280;3043;42.682;23.376;2023-04-06T03:04:16;94578.69;;;1.52;100.00
6030;BME280;3043;42.682;23.376;2023-04-06T03:06:41;94581.22;;;1.47;100.00
6030;BME280;3043;42.682;23.376;2023-04-06T03:09:07;94578.69;;;1.50;100.00
6030;BME280;3043;42.682;23.376;2023-04-06T03:11:32;94576.16;;;1.53;100.00
6030;BME280;3043;42.682;23.376;2023-04-06T03:13:58;94576.16;;;1.53;100.00
6030;BME280;3043;42.682;23.376;2023-04-06T03:16:24;94572.72;;;1.39;100.00
6030;BME280;3043;42.682;23.376;2023-04-06T03:18:50;94565.94;;;1.44;100.00
6030;BME280;3043;42.682;23.376;2023-04-06T03:21:15;94575.31;;;1.51;100.00
6030;BME280;3043;42.682;23.376;2023-04-06T03:23:41;94576.19;;;1.56;100.00
6030;BME280;3043;42.682;23.376;2023-04-06T03:26:07;94566.81;;;1.57;100.00
6030;BME280;3043;42.682;23.376;2023-04-06T03:28:33;94577.03;;;1.69;100.00
6030;BME280;3043;42.682;23.376;2023-04-06T03:30:58;94570.25;;;1.71;100.00
6030;BME280;3043;42.682;23.376;2023-04-06T03:33:24;94574.47;;;1.55;100.00
6030;BME280;3043;42.682;23.376;2023-04-06T03:35:52;94573.66;;;1.64;100.00
6030;BME280;3043;42.682;23.376;2023-04-06T03:38:18;94567.69;;;1.60;100.00
6030;BME280;3043;42.682;23.376;2023-04-06T03:40:43;94571.94;;;1.64;100.00
6030;BME280;3043;42.682;23.376;2023-04-06T03:43:09;94571.94;;;1.63;100.00
6030;BME280;3043;42.682;23.376;2023-04-06T03:45:34;94567.69;;;1.59;100.00
6030;BME280;3043;42.682;23.376;2023-04-06T03:48:00;94572.78;;;1.57;100.00
6030;BME280;3043;42.682;23.376;2023-04-06T03:50:25;94579.59;;;1.73;100.00
6030;BME280;3043;42.682;23.376;2023-04-06T03:52:51;94572.81;;;1.78;100.00
6030;BME280;3043;42.682;23.376;2023-04-06T03:55:16;94566.03;;;1.74;100.00
6030;BME280;3043;42.682;23.376;2023-04-06T03:57:42;94566.03;;;1.77;100.00
6030;BME280;3043;42.682;23.376;2023-04-06T04:00:08;94572.84;;;2.06;100.00
6030;BME280;3043;42.682;23.376;2023-04-06T04:02:34;94577.94;;;1.88;100.00
6030;BME280;3043;42.682;23.376;2023-04-06T04:04:59;94566.03;;;1.93;100.00
6030;BME280;3043;42.682;23.376;2023-04-06T04:07:25;94574.50;;;1.82;100.00
6030;BME280;3043;42.682;23.376;2023-04-06T04:09:50;94578.78;;;1.87;100.00
6030;BME280;3043;42.682;23.376;2023-04-06T04:12:16;94580.50;;;2.00;100.00
6030;BME280;3043;42.682;23.376;2023-04-06T04:14:42;94575.38;;;1.81;100.00
6030;BME280;3043;42.682;23.376;2023-04-06T04:17:07;94573.69;;;1.85;100.00
6030;BME280;3043;42.682;23.376;2023-04-06T04:19:33;94571.13;;;1.71;100.00
6030;BME280;3043;42.682;23.376;2023-04-06T04:21:58;94571.94;;;1.75;100.00
6030;BME280;3043;42.682;23.376;2023-04-06T04:24:24;94571.94;;;1.69;100.00
6030;BME280;3043;42.682;23.376;2023-04-06T04:26:49;94571.09;;;1.56;100.00
6030;BME280;3043;42.682;23.376;2023-04-06T04:29:15;94571.94;;;1.67;100.00
6030;BME280;3043;42.682;23.376;2023-04-06T04:31:41;94569.38;;;1.58;100.00
6030;BME280;3043;42.682;23.376;2023-04-06T04:34:07;94570.25;;;1.63;100.00
6030;BME280;3043;42.682;23.376;2023-04-06T04:36:32;94572.81;;;1.75;100.00
6030;BME280;3043;42.682;23.376;2023-04-06T04:38:58;94578.75;;;1.68;100.00
6030;BME280;3043;42.682;23.376;2023-04-06T04:41:26;94576.19;;;1.62;100.00
6030;BME280;3043;42.682;23.376;2023-04-06T04:43:51;94569.41;;;1.85;100.00
6030;BME280;3043;42.682;23.376;2023-04-06T04:46:17;94584.72;;;1.85;100.00
6030;BME280;3043;42.682;23.376;2023-04-06T04:48:42;94582.19;;;1.99;100.00
6030;BME280;3043;42.682;23.376;2023-04-06T04:51:08;94574.56;;;2.25;100.00
6030;BME280;3043;42.682;23.376;2023-04-06T04:53:33;94579.69;;;2.34;100.00
6030;BME280;3043;42.682;23.376;2023-04-06T04:55:58;94569.47;;;2.43;100.00
6030;BME280;3043;42.682;23.376;2023-04-06T04:58:24;94574.53;;;2.58;100.00
6030;BME280;3043;42.682;23.376;2023-04-06T05:00:49;94581.34;;;2.50;100.00
6030;BME280;3043;42.682;23.376;2023-04-06T05:03:21;94579.66;;;2.58;100.00
6030;BME280;3043;42.682;23.376;2023-04-06T05:05:47;94583.06;;;2.48;100.00
6030;BME280;3043;42.682;23.376;2023-04-06T05:08:13;94577.94;;;2.69;100.00
6030;BME280;3043;42.682;23.376;2023-04-06T05:10:39;94579.63;;;2.70;100.00
6030;BME280;3043;42.682;23.376;2023-04-06T05:13:04;94573.69;;;2.60;100.00
6030;BME280;3043;42.682;23.376;2023-04-06T05:15:30;94568.56;;;2.68;100.00
6030;BME280;3043;42.682;23.376;2023-04-06T05:17:56;94577.13;;;2.47;100.00
6030;BME280;3043;42.682;23.376;2023-04-06T05:20:21;94574.56;;;2.44;100.00
6030;BME280;3043;42.682;23.376;2023-04-06T05:22:47;94579.66;;;2.58;100.00
6030;BME280;3043;42.682;23.376;2023-04-06T05:25:13;94578.78;;;2.56;100.00
6030;BME280;3043;42.682;23.376;2023-04-06T05:27:39;94583.94;;;2.33;100.00
6030;BME280;3043;42.682;23.376;2023-04-06T05:30:06;94588.16;;;2.45;100.00
6030;BME280;3043;42.682;23.376;2023-04-06T05:32:32;94582.22;;;2.53;100.00
6030;BME280;3043;42.682;23.376;2023-04-06T05:34:58;94582.22;;;2.29;100.00
6030;BME280;3043;42.682;23.376;2023-04-06T05:37:23;94583.06;;;2.25;100.00
6030;BME280;3043;42.682;23.376;2023-04-06T05:39:49;94588.16;;;2.42;100.00
6030;BME280;3043;42.682;23.376;2023-04-06T05:42:15;94584.78;;;2.46;100.00
6030;BME280;3043;42.682;23.376;2023-04-06T05:44:40;94589.03;;;2.39;100.00
6030;BME280;3043;42.682;23.376;2023-04-06T05:47:06;94577.09;;;2.50;100.00
6030;BME280;3043;42.682;23.376;2023-04-06T05:49:31;94586.44;;;2.62;100.00
6030;BME280;3043;42.682;23.376;2023-04-06T05:51:57;94581.38;;;2.44;100.00
6030;BME280;3043;42.682;23.376;2023-04-06T05:54:22;94580.50;;;2.45;100.00
6030;BME280;3043;42.682;23.376;2023-04-06T05:56:48;94581.38;;;2.35;100.00
6030;BME280;3043;42.682;23.376;2023-04-06T05:59:13;94583.06;;;2.30;100.00
6030;BME280;3043;42.682;23.376;2023-04-06T06:01:39;94575.41;;;2.42;100.00
6030;BME280;3043;42.682;23.376;2023-04-06T06:04:04;94574.53;;;2.58;100.00
6030;BME280;3043;42.682;23.376;2023-04-06T06:06:30;94576.22;;;2.77;100.00
6030;BME280;3043;42.682;23.376;2023-04-06T06:08:56;94572.84;;;2.69;100.00
6030;BME280;3043;42.682;23.376;2023-04-06T06:11:24;94562.59;;;2.75;100.00
6030;BME280;3043;42.682;23.376;2023-04-06T06:13:50;94566.84;;;2.83;100.00
6030;BME280;3043;42.682;23.376;2023-04-06T06:16:16;94571.03;;;2.98;100.00
6030;BME280;3043;42.682;23.376;2023-04-06T06:18:42;94569.31;;;3.09;100.00
6030;BME280;3043;42.682;23.376;2023-04-06T06:21:07;94569.22;;;3.30;100.00
6030;BME280;3043;42.682;23.376;2023-04-06T06:23:33;94576.06;;;3.34;100.00
6030;BME280;3043;42.682;23.376;2023-04-06T06:25:58;94575.13;;;3.45;100.00
6030;BME280;3043;42.682;23.376;2023-04-06T06:28:24;94570.72;;;3.76;100.00
6030;BME280;3043;42.682;23.376;2023-04-06T06:30:50;94566.47;;;3.77;100.00
6030;BME280;3043;42.682;23.376;2023-04-06T06:33:16;94570.44;;;4.18;100.00
6030;BME280;3043;42.682;23.376;2023-04-06T06:35:42;94572.06;;;4.30;100.00
6030;BME280;3043;42.682;23.376;2023-04-06T06:38:07;94579.03;;;4.14;100.00
6030;BME280;3043;42.682;23.376;2023-04-06T06:40:33;94582.34;;;4.28;100.00
6030;BME280;3043;42.682;23.376;2023-04-06T06:42:59;94572.69;;;4.54;100.00
6030;BME280;3043;42.682;23.376;2023-04-06T06:45:24;94578.44;;;4.83;100.00
6030;BME280;3043;42.682;23.376;2023-04-06T06:47:51;94561.09;;;5.06;100.00
6030;BME280;3043;42.682;23.376;2023-04-06T06:50:16;94577.88;;;5.36;100.00
6030;BME280;3043;42.682;23.376;2023-04-06T06:52:43;94584.91;;;5.92;100.00
6030;BME280;3043;42.682;23.376;2023-04-06T06:55:09;94577.16;;;6.51;100.00
6030;BME280;3043;42.682;23.376;2023-04-06T06:57:36;94571.41;;;7.34;100.00
6030;BME280;3043;42.682;23.376;2023-04-06T07:00:02;94570.31;;;7.88;100.00
6030;BME280;3043;42.682;23.376;2023-04-06T07:02:28;94582.81;;;8.06;100.00
6030;BME280;3043;42.682;23.376;2023-04-06T07:04:53;94578.97;;;8.25;99.22
6030;BME280;3043;42.682;23.376;2023-04-06T07:07:18;94591.19;;;9.23;95.54
6030;BME280;3043;42.682;23.376;2023-04-06T07:09:45;94578.03;;;9.64;87.33
6030;BME280;3043;42.682;23.376;2023-04-06T07:12:10;94580.88;;;10.16;84.03
6030;BME280;3043;42.682;23.376;2023-04-06T07:14:36;94575.91;;;11.17;77.71
6030;BME280;3043;42.682;23.376;2023-04-06T07:17:01;94580.69;;;11.03;71.49
6030;BME280;3043;42.682;23.376;2023-04-06T07:19:27;94577.78;;;11.12;69.39
6030;BME280;3043;42.682;23.376;2023-04-06T07:21:52;94571.66;;;9.75;71.11
6030;BME280;3043;42.682;23.376;2023-04-06T07:24:18;94570.56;;;10.14;74.71
6030;BME280;3043;42.682;23.376;2023-04-06T07:26:43;94568.75;;;10.99;71.78
6030;BME280;3043;42.682;23.376;2023-04-06T07:29:09;94576.78;;;10.64;69.30
6030;BME280;3043;42.682;23.376;2023-04-06T07:31:35;94576.19;;;9.04;76.26
6030;BME280;3043;42.682;23.376;2023-04-06T07:34:01;94578.84;;;8.66;76.73
6030;BME280;3043;42.682;23.376;2023-04-06T07:36:26;94585.34;;;8.47;83.72
6030;BME280;3043;42.682;23.376;2023-04-06T07:38:52;94580.19;;;9.16;78.69
6030;BME280;3043;42.682;23.376;2023-04-06T07:41:17;94563.16;;;8.75;80.97
6030;BME280;3043;42.682;23.376;2023-04-06T07:43:43;94578.09;;;8.26;83.23
6030;BME280;3043;42.682;23.376;2023-04-06T07:46:09;94571.63;;;8.06;84.35
6030;BME280;3043;42.682;23.376;2023-04-06T07:48:34;94559.16;;;7.01;92.28
6030;BME280;3043;42.682;23.376;2023-04-06T07:51:01;94579.53;;;7.57;91.96
6030;BME280;3043;42.682;23.376;2023-04-06T07:53:27;94579.25;;;8.85;86.26
6030;BME280;3043;42.682;23.376;2023-04-06T07:55:53;94577.69;;;9.45;81.71
6030;BME280;3043;42.682;23.376;2023-04-06T07:58:18;94573.94;;;10.16;76.66
6030;BME280;3043;42.682;23.376;2023-04-06T08:00:44;94567.56;;;10.28;74.59
6030;BME280;3043;42.682;23.376;2023-04-06T08:03:10;94575.88;;;11.43;69.48
6030;BME280;3043;42.682;23.376;2023-04-06T08:05:35;94563.44;;;12.00;66.25
6030;BME280;3043;42.682;23.376;2023-04-06T08:08:00;94571.78;;;12.08;63.91
6030;BME280;3043;42.682;23.376;2023-04-06T08:10:26;94569.19;;;12.31;61.97
6030;BME280;3043;42.682;23.376;2023-04-06T08:12:52;94571.28;;;13.10;59.33
6030;BME280;3043;42.682;23.376;2023-04-06T08:15:17;94548.22;;;14.40;54.78
6030;BME280;3043;42.682;23.376;2023-04-06T08:17:43;94563.03;;;14.00;52.11
6030;BME280;3043;42.682;23.376;2023-04-06T08:20:09;94542.66;;;14.28;52.30
6030;BME280;3043;42.682;23.376;2023-04-06T08:22:34;94553.94;;;14.29;49.08
6030;BME280;3043;42.682;23.376;2023-04-06T08:25:00;94567.53;;;13.17;49.40
6030;BME280;3043;42.682;23.376;2023-04-06T08:27:25;94582.75;;;12.83;52.09
6030;BME280;3043;42.682;23.376;2023-04-06T08:29:51;94568.97;;;12.81;52.50
6030;BME280;3043;42.682;23.376;2023-04-06T08:32:17;94556.91;;;13.43;51.25
6030;BME280;3043;42.682;23.376;2023-04-06T08:34:42;94554.97;;;12.85;52.13
6030;BME280;3043;42.682;23.376;2023-04-06T08:37:08;94565.69;;;13.19;51.44
6030;BME280;3043;42.682;23.376;2023-04-06T08:39:33;94565.34;;;12.63;53.46
6030;BME280;3043;42.682;23.376;2023-04-06T08:42:00;94555.31;;;12.97;53.11
6030;BME280;3043;42.682;23.376;2023-04-06T08:44:29;94567.59;;;14.14;48.57
6030;BME280;3043;42.682;23.376;2023-04-06T08:46:55;94560.91;;;13.30;50.37
6030;BME280;3043;42.682;23.376;2023-04-06T08:49:21;94558.19;;;12.25;52.13
6030;BME280;3043;42.682;23.376;2023-04-06T08:51:47;94565.56;;;13.22;51.03
6030;BME280;3043;42.682;23.376;2023-04-06T08:54:12;94562.09;;;12.58;52.24
6030;BME280;3043;42.682;23.376;2023-04-06T08:56:39;94559.91;;;11.80;53.74
6030;BME280;3043;42.682;23.376;2023-04-06T08:59:05;94552.03;;;11.08;56.50
6030;BME280;3043;42.682;23.376;2023-04-06T09:01:33;94565.03;;;11.06;56.46
6030;BME280;3043;42.682;23.376;2023-04-06T09:04:00;94565.25;;;11.00;57.85
6030;BME280;3043;42.682;23.376;2023-04-06T09:06:26;94554.69;;;11.06;55.60
6030;BME280;3043;42.682;23.376;2023-04-06T09:08:52;94567.09;;;11.21;56.36
6030;BME280;3043;42.682;23.376;2023-04-06T09:11:18;94551.94;;;11.35;55.64
6030;BME280;3043;42.682;23.376;2023-04-06T09:13:45;94551.31;;;11.04;55.84
6030;BME280;3043;42.682;23.376;2023-04-06T09:16:11;94529.59;;;12.03;53.51
6030;BME280;3043;42.682;23.376;2023-04-06T09:18:37;94539.00;;;12.07;53.50
6030;BME280;3043;42.682;23.376;2023-04-06T09:21:05;94546.66;;;11.87;52.53
6030;BME280;3043;42.682;23.376;2023-04-06T09:23:31;94556.75;;;12.18;52.40
6030;BME280;3043;42.682;23.376;2023-04-06T09:28:58;94532.50;;;12.84;50.55
6030;BME280;3043;42.682;23.376;2023-04-06T09:31:30;94541.69;;;12.71;52.31
6030;BME280;3043;42.682;23.376;2023-04-06T09:33:58;94540.00;;;12.70;52.18
6030;BME280;3043;42.682;23.376;2023-04-06T09:36:31;94529.06;;;13.25;50.45
6030;BME280;3043;42.682;23.376;2023-04-06T09:41:33;94551.00;;;12.54;51.46
6030;BME280;3043;42.682;23.376;2023-04-06T09:44:11;94542.53;;;12.93;50.36
6030;BME280;3043;42.682;23.376;2023-04-06T09:46:39;94534.38;;;13.62;49.22
6030;BME280;3043;42.682;23.376;2023-04-06T09:49:06;94533.81;;;12.94;49.28
6030;BME280;3043;42.682;23.376;2023-04-06T09:51:38;94533.75;;;12.30;51.42
6030;BME280;3043;42.682;23.376;2023-04-06T09:54:04;94532.84;;;12.75;51.31
6030;BME280;3043;42.682;23.376;2023-04-06T09:57:01;94527.78;;;13.55;48.81
6030;BME280;3043;42.682;23.376;2023-04-06T09:59:44;94540.91;;;12.02;51.52
6030;BME280;3043;42.682;23.376;2023-04-06T10:07:27;94531.88;;;11.66;52.70
6030;BME280;3043;42.682;23.376;2023-04-06T10:09:53;94547.69;;;10.56;53.90
6030;BME280;3043;42.682;23.376;2023-04-06T10:12:20;94540.84;;;10.55;54.96
6030;BME280;3043;42.682;23.376;2023-04-06T10:14:46;94535.34;;;11.16;55.45
6030;BME280;3043;42.682;23.376;2023-04-06T10:17:12;94537.63;;;11.25;55.67
6030;BME280;3043;42.682;23.376;2023-04-06T10:19:50;94547.19;;;11.23;52.16
6030;BME280;3043;42.682;23.376;2023-04-06T10:22:43;94536.19;;;10.66;53.98
6030;BME280;3043;42.682;23.376;2023-04-06T10:25:08;94544.03;;;10.63;54.86
6030;BME280;3043;42.682;23.376;2023-04-06T10:27:34;94542.09;;;10.16;56.65
6030;BME280;3043;42.682;23.376;2023-04-06T10:30:04;94529.19;;;10.42;56.83
6030;BME280;3043;42.682;23.376;2023-04-06T10:32:37;94535.66;;;9.98;56.76
6030;BME280;3043;42.682;23.376;2023-04-06T10:35:07;94538.81;;;9.50;59.00
6030;BME280;3043;42.682;23.376;2023-04-06T10:38:00;94528.91;;;9.65;59.52
6030;BME280;3043;42.682;23.376;2023-04-06T10:40:27;94536.91;;;10.16;58.61
6030;BME280;3043;42.682;23.376;2023-04-06T10:42:54;94532.66;;;10.41;57.19
6030;BME280;3043;42.682;23.376;2023-04-06T10:47:46;94531.03;;;9.80;57.16
6030;BME280;3043;42.682;23.376;2023-04-06T10:50:15;94528.59;;;10.05;58.09
6030;BME280;3043;42.682;23.376;2023-04-06T10:52:41;94524.56;;;9.96;58.21
6030;BME280;3043;42.682;23.376;2023-04-06T10:55:09;94527.69;;;10.06;57.99
6030;BME280;3043;42.682;23.376;2023-04-06T10:57:37;94527.28;;;10.47;57.17
6030;BME280;3043;42.682;23.376;2023-04-06T11:00:23;94521.97;;;10.24;58.59
6030;BME280;3043;42.682;23.376;2023-04-06T11:02:48;94522.63;;;10.84;57.09
6030;BME280;3043;42.682;23.376;2023-04-06T11:05:14;94522.22;;;10.70;56.16
6030;BME280;3043;42.682;23.376;2023-04-06T11:07:40;94521.50;;;10.13;54.94
6030;BME280;3043;42.682;23.376;2023-04-06T11:10:07;94521.69;;;10.07;55.87
6030;BME280;3043;42.682;23.376;2023-04-06T11:12:33;94529.03;;;9.90;57.22
6030;BME280;3043;42.682;23.376;2023-04-06T11:15:01;94519.56;;;9.90;57.19
6030;BME280;3043;42.682;23.376;2023-04-06T11:17:30;94516.94;;;9.92;58.24
6030;BME280;3043;42.682;23.376;2023-04-06T11:19:57;94510.81;;;9.94;57.83
6030;BME280;3043;42.682;23.376;2023-04-06T11:22:24;94514.31;;;10.21;57.50
6030;BME280;3043;42.682;23.376;2023-04-06T11:24:49;94518.94;;;10.39;57.11
6030;BME280;3043;42.682;23.376;2023-04-06T11:27:15;94518.34;;;10.02;57.17
6030;BME280;3043;42.682;23.376;2023-04-06T11:29:41;94517.53;;;9.71;57.67
6030;BME280;3043;42.682;23.376;2023-04-06T11:32:07;94507.88;;;9.77;57.32
6030;BME280;3043;42.682;23.376;2023-04-06T11:34:38;94507.00;;;9.78;56.91
6030;BME280;3043;42.682;23.376;2023-04-06T11:37:08;94511.03;;;9.87;57.44
6030;BME280;3043;42.682;23.376;2023-04-06T11:39:39;94510.84;;;9.64;57.25
6030;BME280;3043;42.682;23.376;2023-04-06T11:42:05;94505.69;;;9.64;57.83
6030;BME280;3043;42.682;23.376;2023-04-06T11:44:32;94505.88;;;9.27;58.33
6030;BME280;3043;42.682;23.376;2023-04-06T11:46:58;94499.44;;;9.11;60.82
6030;BME280;3043;42.682;23.376;2023-04-06T11:49:27;94503.00;;;9.38;60.84
6030;BME280;3043;42.682;23.376;2023-04-06T11:51:56;94494.63;;;9.59;60.05
6030;BME280;3043;42.682;23.376;2023-04-06T11:54:35;94504.59;;;9.71;59.27
6030;BME280;3043;42.682;23.376;2023-04-06T11:57:03;94494.84;;;9.51;58.99
6030;BME280;3043;42.682;23.376;2023-04-06T11:59:28;94497.31;;;9.56;59.26
6030;BME280;3043;42.682;23.376;2023-04-06T12:01:54;94497.47;;;9.19;60.71
6030;BME280;3043;42.682;23.376;2023-04-06T12:04:20;94491.97;;;9.33;60.95
6030;BME280;3043;42.682;23.376;2023-04-06T12:06:46;94498.00;;;8.99;61.59
6030;BME280;3043;42.682;23.376;2023-04-06T12:09:11;94500.16;;;8.50;63.45
6030;BME280;3043;42.682;23.376;2023-04-06T12:11:37;94491.75;;;8.42;64.98
6030;BME280;3043;42.682;23.376;2023-04-06T12:14:04;94499.13;;;8.21;65.52
6030;BME280;3043;42.682;23.376;2023-04-06T12:16:34;94481.22;;;8.51;64.72
6030;BME280;3043;42.682;23.376;2023-04-06T12:19:00;94479.53;;;8.50;65.28
6030;BME280;3043;42.682;23.376;2023-04-06T12:21:35;94482.06;;;8.15;66.62
6030;BME280;3043;42.682;23.376;2023-04-06T12:24:02;94480.84;;;7.93;67.18
6030;BME280;3043;42.682;23.376;2023-04-06T12:26:29;94488.78;;;7.84;67.57
6030;BME280;3043;42.682;23.376;2023-04-06T12:28:54;94493.22;;;7.79;69.19
6030;BME280;3043;42.682;23.376;2023-04-06T12:31:21;94490.88;;;7.67;70.65
6030;BME280;3043;42.682;23.376;2023-04-06T12:33:48;94483.56;;;7.49;70.60
6030;BME280;3043;42.682;23.376;2023-04-06T12:36:15;94485.75;;;7.67;69.75
6030;BME280;3043;42.682;23.376;2023-04-06T12:38:41;94483.16;;;7.29;71.56
6030;BME280;3043;42.682;23.376;2023-04-06T12:41:07;94475.97;;;7.43;70.30
6030;BME280;3043;42.682;23.376;2023-04-06T12:43:32;94479.41;;;7.01;71.73
6030;BME280;3043;42.682;23.376;2023-04-06T12:45:58;94472.16;;;7.21;71.31
6030;BME280;3043;42.682;23.376;2023-04-06T12:48:25;94468.81;;;7.16;72.74
6030;BME280;3043;42.682;23.376;2023-04-06T12:50:58;94458.13;;;6.93;74.05
6030;BME280;3043;42.682;23.376;2023-04-06T12:53:24;94465.19;;;7.26;74.29
6030;BME280;3043;42.682;23.376;2023-04-06T12:55:49;94468.38;;;7.37;71.67
6030;BME280;3043;42.682;23.376;2023-04-06T12:58:15;94460.41;;;7.48;71.68
6030;BME280;3043;42.682;23.376;2023-04-06T13:00:41;94456.59;;;7.67;71.57
6030;BME280;3043;42.682;23.376;2023-04-06T13:03:07;94457.59;;;7.58;73.01
6030;BME280;3043;42.682;23.376;2023-04-06T13:05:32;94458.63;;;7.89;70.93
6030;BME280;3043;42.682;23.376;2023-04-06T13:07:58;94461.06;;;7.95;69.88
6030;BME280;3043;42.682;23.376;2023-04-06T13:10:23;94457.81;;;7.87;70.03
6030;BME280;3043;42.682;23.376;2023-04-06T13:12:49;94447.38;;;7.93;69.48
6030;BME280;3043;42.682;23.376;2023-04-06T13:15:14;94449.59;;;8.08;69.11
6030;BME280;3043;42.682;23.376;2023-04-06T13:17:40;94455.94;;;7.94;70.04
6030;BME280;3043;42.682;23.376;2023-04-06T13:20:06;94453.41;;;7.92;71.21
6030;BME280;3043;42.682;23.376;2023-04-06T13:22:32;94459.56;;;7.87;71.48